Time;durP1;ratioP1;P1;durP2;ratioP2;P2;SDS_P1;SDS_P2;PMS_P1;PMS_P2;Temp;Humidity;BMP_temperature;BMP_pressure;BME280_temperature;BME280_humidity;BME280_pressure;Samples;Min_cycle;Max_cycle;Signal;HPM_P1;HPM_P2
2022/12/19 00:02:22;;;;;;;42.22;19.70;;;;;;;-5.73;90.02;102333.16;7400440;19;20023;-69
2022/12/19 00:04:51;;;;;;;40.45;18.58;;;;;;;-5.73;90.04;102331.47;7399980;19;20019;-69
2022/12/19 00:07:19;;;;;;;38.47;18.70;;;;;;;-5.73;90.35;102321.25;7397543;19;20107;-68
2022/12/19 00:09:48;;;;;;;41.42;20.23;;;;;;;-5.72;90.46;102325.59;7399822;19;20036;-68
2022/12/19 00:12:16;;;;;;;36.50;17.63;;;;;;;-5.70;90.58;102332.50;7397341;19;20039;-68
2022/12/19 00:14:45;;;;;;;35.65;17.23;;;;;;;-5.72;90.61;102325.59;7403377;19;20022;-68
2022/12/19 00:17:16;;;;;;;39.80;17.90;;;;;;;-5.70;90.42;102324.81;7397181;19;20594;-68
2022/12/19 00:19:51;;;;;;;41.88;19.30;;;;;;;-5.68;90.23;102313.91;7398614;19;20014;-68
2022/12/19 00:22:20;;;;;;;34.97;17.35;;;;;;;-5.69;90.19;102293.34;7399188;19;20014;-68
2022/12/19 00:24:49;;;;;;;39.90;18.40;;;;;;;-5.69;89.94;102288.25;7398950;19;20485;-68
2022/12/19 00:27:18;;;;;;;39.10;19.58;;;;;;;-5.69;89.96;102275.47;7397159;19;20386;-68
2022/12/19 00:29:46;;;;;;;33.53;18.00;;;;;;;-5.69;90.10;102276.34;7399044;19;20035;-69
2022/12/19 00:32:17;;;;;;;38.40;20.05;;;;;;;-5.69;90.20;102271.22;7398740;19;20023;-69
2022/12/19 00:34:46;;;;;;;36.90;18.17;;;;;;;-5.67;89.91;102277.34;7399266;19;20384;-68
2022/12/19 00:37:14;;;;;;;40.17;20.50;;;;;;;-5.67;90.08;102274.78;7396793;19;20018;-67
2022/12/19 00:39:43;;;;;;;36.85;17.27;;;;;;;-5.65;89.99;102269.78;7398421;19;20014;-67
2022/12/19 00:42:12;;;;;;;40.03;18.48;;;;;;;-5.65;90.32;102278.34;7398424;19;20553;-68
2022/12/19 00:44:40;;;;;;;36.47;17.90;;;;;;;-5.62;90.43;102287.91;7398266;19;20024;-68
2022/12/19 00:47:09;;;;;;;38.20;18.65;;;;;;;-5.61;90.48;102274.31;7396283;19;20481;-67
2022/12/19 00:49:40;;;;;;;36.65;17.17;;;;;;;-5.60;90.37;102274.44;7398418;19;20382;-68
2022/12/19 00:52:08;;;;;;;36.20;17.88;;;;;;;-5.61;90.28;102252.19;7395965;19;20015;-69
2022/12/19 00:54:37;;;;;;;34.80;16.55;;;;;;;-5.60;89.89;102253.06;7395932;19;20387;-69
2022/12/19 00:57:05;;;;;;;36.42;16.73;;;;;;;-5.57;90.03;102245.63;7396540;19;20022;-68
2022/12/19 00:59:34;;;;;;;38.05;19.98;;;;;;;-5.56;90.39;102244.81;7396083;19;20018;-69
2022/12/19 01:02:02;;;;;;;37.25;18.00;;;;;;;-5.56;89.82;102232.94;7398082;19;20031;-68
2022/12/19 01:04:31;;;;;;;40.53;18.77;;;;;;;-5.53;90.04;102221.13;7396155;19;20018;-68
2022/12/19 01:07:04;;;;;;;38.05;17.67;;;;;;;-5.53;90.10;102221.13;7395891;19;20509;-68
2022/12/19 01:09:33;;;;;;;36.38;17.30;;;;;;;-5.52;89.77;102208.47;7398145;19;20022;-69
2022/12/19 01:14:43;;;;;;;37.75;19.13;;;;;;;-5.50;89.79;102211.97;7397785;19;20007;-69
2022/12/19 01:17:12;;;;;;;37.58;17.33;;;;;;;-5.49;89.72;102211.22;7395923;19;20014;-68
2022/12/19 01:19:40;;;;;;;36.50;17.50;;;;;;;-5.50;89.77;102211.97;7394714;19;20027;-68
2022/12/19 01:22:11;;;;;;;39.00;19.85;;;;;;;-5.47;89.79;102221.53;7397160;19;20027;-68
2022/12/19 01:24:40;;;;;;;33.67;17.05;;;;;;;-5.46;90.19;102221.66;7397076;19;20488;-68
2022/12/19 01:27:08;;;;;;;40.40;19.85;;;;;;;-5.45;90.12;102213.19;7395674;19;20030;-68
2022/12/19 01:29:37;;;;;;;34.80;18.10;;;;;;;-5.43;90.35;102200.50;7396821;19;20014;-68
2022/12/19 01:32:06;;;;;;;37.08;17.30;;;;;;;-5.41;89.97;102196.38;7396637;19;20500;-68
2022/12/19 01:34:34;;;;;;;37.30;17.02;;;;;;;-5.42;90.11;102190.38;7396607;19;20019;-69
2022/12/19 01:37:03;;;;;;;35.10;18.40;;;;;;;-5.39;89.95;102179.47;7395327;19;20018;-69
2022/12/19 01:39:34;;;;;;;36.47;17.90;;;;;;;-5.36;89.56;102171.97;7395411;19;20099;-68
2022/12/19 01:42:03;;;;;;;31.92;16.00;;;;;;;-5.35;89.54;102157.53;7396481;19;20010;-68
2022/12/19 01:44:33;;;;;;;35.45;17.90;;;;;;;-5.32;89.77;102181.66;7396635;19;20035;-68
2022/12/19 01:47:02;;;;;;;35.65;17.38;;;;;;;-5.29;89.98;102175.84;7395284;19;20023;-68
2022/12/19 01:49:34;;;;;;;37.75;17.92;;;;;;;-5.26;90.11;102174.38;7394838;19;20022;-68
2022/12/19 01:52:06;;;;;;;36.95;17.92;;;;;;;-5.23;90.01;102171.13;7396844;19;20043;-68
2022/12/19 01:54:40;;;;;;;36.38;16.65;;;;;;;-5.21;90.12;102164.44;7396617;19;20035;-69
2022/12/19 01:57:12;;;;;;;37.90;18.42;;;;;;;-5.19;89.99;102160.31;7395259;19;20019;-68
2022/12/19 01:59:45;;;;;;;34.72;18.25;;;;;;;-5.18;89.87;102146.72;7395303;19;20023;-68
2022/12/19 02:02:19;;;;;;;31.13;16.65;;;;;;;-5.16;90.17;102157.06;7396603;19;20027;-68
2022/12/19 02:04:49;;;;;;;35.97;17.33;;;;;;;-5.15;90.03;102131.56;7394635;19;20022;-69
2022/12/19 02:07:20;;;;;;;37.28;18.45;;;;;;;-5.14;90.10;102135.91;7394056;19;20015;-68
2022/12/19 02:09:55;;;;;;;36.60;18.13;;;;;;;-5.14;89.81;102135.91;7395560;19;20028;-69
2022/12/19 02:12:31;;;;;;;34.58;17.58;;;;;;;-5.14;89.70;102132.47;7395473;19;20362;-69
2022/12/19 02:15:01;;;;;;;34.60;16.83;;;;;;;-5.15;89.76;102125.56;7396089;19;20032;-69
2022/12/19 02:17:39;;;;;;;33.05;17.27;;;;;;;-5.14;89.54;102124.78;7393926;19;20375;-69
2022/12/19 02:20:33;;;;;;;36.20;18.92;;;;;;;-5.13;89.82;102131.66;7393411;19;20367;-70
2022/12/19 02:23:23;;;;;;;36.43;17.37;;;;;;;-5.11;89.97;102130.09;7393198;19;20037;-69
2022/12/19 02:26:09;;;;;;;31.80;16.27;;;;;;;-5.11;89.93;102124.97;7395199;19;20035;-69
2022/12/19 02:29:01;;;;;;;34.90;17.00;;;;;;;-5.12;89.26;102126.66;7395591;19;20011;-69
2022/12/19 02:31:36;;;;;;;31.63;16.65;;;;;;;-5.08;88.85;102135.38;7395316;19;20014;-69
2022/12/19 02:34:15;;;;;;;33.35;16.42;;;;;;;-5.06;88.78;102128.72;7394842;19;20010;-70
2022/12/19 02:36:48;;;;;;;33.10;17.23;;;;;;;-5.03;89.30;102131.47;7393129;19;20027;-69
2022/12/19 02:39:24;;;;;;;37.63;18.30;;;;;;;-5.02;88.60;102129.78;7393633;19;20015;-69
2022/12/19 02:41:58;;;;;;;34.78;17.33;;;;;;;-4.98;88.33;102130.09;7395487;19;20347;-69
2022/12/19 02:44:32;;;;;;;30.52;17.83;;;;;;;-4.94;88.35;102128.59;7395535;19;20023;-68
2022/12/19 02:47:06;;;;;;;35.53;17.08;;;;;;;-4.92;88.03;102122.78;7394556;19;20106;-68
2022/12/19 02:49:36;;;;;;;34.78;18.10;;;;;;;-4.88;87.45;102118.75;7395174;19;20018;-69
2022/12/19 02:52:12;;;;;;;35.03;16.98;;;;;;;-4.84;87.21;102114.72;7394404;19;20027;-70
2022/12/19 02:54:41;;;;;;;33.05;17.80;;;;;;;-4.80;87.82;102114.09;7392800;19;20356;-70
2022/12/19 02:57:21;;;;;;;35.58;18.48;;;;;;;-4.78;88.06;102115.09;7392543;19;20015;-70
2022/12/19 03:00:03;;;;;;;34.33;17.40;;;;;;;-4.75;87.96;102117.88;7392341;19;20018;-70
2022/12/19 03:02:44;;;;;;;35.17;18.48;;;;;;;-4.73;87.84;102111.16;7395525;19;20014;-70
2022/12/19 03:05:20;;;;;;;35.70;17.50;;;;;;;-4.70;87.56;102113.91;7392197;19;20027;-69
2022/12/19 03:07:57;;;;;;;41.88;19.45;;;;;;;-4.69;87.34;102117.34;7394945;19;20018;-70
2022/12/19 03:10:36;;;;;;;34.38;18.55;;;;;;;-4.67;87.34;102110.66;7397012;19;20015;-70
2022/12/19 03:13:10;;;;;;;34.92;17.48;;;;;;;-4.65;87.88;102116.75;7396580;19;20022;-68
2022/12/19 03:15:39;;;;;;;;;;;;;;;-4.65;86.74;102116.75;7394011;19;20019;-68
2022/12/19 03:18:10;;;;;;;36.13;18.05;;;;;;;-4.66;86.71;102118.44;7394769;19;19936;-70
2022/12/19 03:20:47;;;;;;;38.00;18.70;;;;;;;-4.64;86.97;102111.75;7394431;19;20011;-69
2022/12/19 03:23:17;;;;;;;36.30;17.90;;;;;;;-4.64;86.44;102105.72;7393737;19;20022;-70
2022/12/19 03:25:53;;;;;;;38.10;19.38;;;;;;;-4.62;87.07;102106.72;7393237;19;20032;-69
2022/12/19 03:28:28;;;;;;;36.15;17.85;;;;;;;-4.61;87.13;102103.38;7394202;19;20037;-69
2022/12/19 03:30:56;;;;;;;;;;;;;;;-4.61;85.81;102099.13;7394040;19;20497;-69
2022/12/19 03:33:31;;;;;;;40.88;18.30;;;;;;;-4.59;86.75;102104.31;7390954;19;20362;-69
2022/12/19 03:36:02;;;;;;;36.90;19.05;;;;;;;-4.56;87.13;102099.41;7399288;19;20022;-69
2022/12/19 03:38:32;;;;;;;36.92;20.38;;;;;;;-4.55;86.40;102103.72;7400481;19;20035;-69
2022/12/19 03:41:04;;;;;;;41.08;20.73;;;;;;;-4.56;86.24;102101.97;7400221;19;20426;-69
2022/12/19 03:43:31;;;;;;;39.78;20.85;;;;;;;-4.53;86.25;102097.03;7400432;19;20031;-69
2022/12/19 03:46:07;;;;;;;38.75;21.48;;;;;;;-4.52;86.32;102091.13;7399280;19;20010;-69
2022/12/19 03:48:43;;;;;;;38.58;19.50;;;;;;;-4.52;86.20;102088.56;7400315;19;20044;-69
2022/12/19 03:51:21;;;;;;;36.28;20.75;;;;;;;-4.51;86.03;102089.41;7400193;19;20021;-70
2022/12/19 03:54:02;;;;;;;41.72;21.55;;;;;;;-4.50;85.80;102083.50;7400826;19;20011;-68
2022/12/19 03:56:41;;;;;;;40.78;20.58;;;;;;;-4.49;86.04;102075.91;7398907;19;20019;-70
2022/12/19 03:59:15;;;;;;;37.80;18.95;;;;;;;-4.48;85.80;102075.13;7399788;19;20115;-68
2022/12/19 04:01:45;;;;;;;40.58;19.88;;;;;;;-4.48;85.36;102077.69;7399822;19;20014;-68
2022/12/19 04:04:17;;;;;;;34.30;20.15;;;;;;;-4.48;85.66;102080.25;7399962;19;20029;-69
2022/12/19 04:06:47;;;;;;;41.05;22.00;;;;;;;-4.46;86.09;102088.94;7398205;19;20019;-69
2022/12/19 04:09:16;;;;;;;45.15;22.88;;;;;;;-4.44;85.76;102073.66;7398994;19;20018;-69
2022/12/19 04:11:51;;;;;;;38.20;20.38;;;;;;;-4.44;85.52;102074.50;7399659;19;20031;-69
2022/12/19 04:14:28;;;;;;;45.10;21.75;;;;;;;-4.44;85.32;102069.38;7399496;19;20028;-69
2022/12/19 04:17:03;;;;;;;40.42;21.08;;;;;;;-4.44;85.31;102079.63;7397235;19;20421;-69
2022/12/19 04:19:42;;;;;;;41.00;21.50;;;;;;;-4.42;84.82;102085.75;7398426;19;20078;-69
2022/12/19 04:22:17;;;;;;;40.33;21.45;;;;;;;-4.42;85.49;102080.63;7398136;19;20003;-69
2022/12/19 04:24:48;;;;;;;44.90;21.65;;;;;;;-4.39;85.92;102085.06;7399560;19;20070;-69
2022/12/19 04:27:17;;;;;;;40.65;20.92;;;;;;;-4.36;85.50;102094.59;7397174;19;20035;-69
2022/12/19 04:29:46;;;;;;;42.25;21.02;;;;;;;-4.35;85.12;102081.00;7399255;19;20097;-69
2022/12/19 04:32:15;;;;;;;40.40;21.02;;;;;;;-4.35;84.83;102074.19;7398692;19;20074;-69
2022/12/19 04:34:46;;;;;;;41.35;21.23;;;;;;;-4.34;83.68;102080.22;7398644;19;20078;-69
2022/12/19 04:37:15;;;;;;;41.95;22.02;;;;;;;-4.32;84.23;102092.34;7396925;19;20014;-69
2022/12/19 04:39:44;;;;;;;40.25;20.55;;;;;;;-4.31;83.72;102083.84;7396216;19;20011;-69
2022/12/19 04:42:12;;;;;;;39.20;19.88;;;;;;;-4.29;84.16;102074.56;7395977;19;20488;-69
2022/12/19 04:44:41;;;;;;;40.83;20.20;;;;;;;-4.26;84.35;102074.78;7398420;19;20090;-69
2022/12/19 04:47:09;;;;;;;40.70;19.23;;;;;;;-4.24;83.65;102067.16;7394100;19;20430;-69
2022/12/19 04:49:46;;;;;;;42.53;20.73;;;;;;;-4.22;83.86;102059.56;7398672;19;20022;-69
2022/12/19 04:52:15;;;;;;;33.80;18.50;;;;;;;-4.23;82.60;102053.56;7398852;19;20018;-70
2022/12/19 04:54:43;;;;;;;36.40;18.48;;;;;;;-4.21;83.16;102054.53;7398224;19;20031;-69
2022/12/19 04:57:12;;;;;;;36.88;19.98;;;;;;;-4.21;82.42;102057.06;7395666;19;20075;-69
2022/12/19 04:59:40;;;;;;;43.53;20.77;;;;;;;-4.18;83.74;102046.13;7396443;19;20082;-70
2022/12/19 05:02:09;;;;;;;37.53;19.38;;;;;;;-4.17;82.80;102046.25;7397372;19;20082;-69
2022/12/19 05:04:37;;;;;;;43.13;22.20;;;;;;;-4.17;82.25;102045.34;7397215;19;20437;-69
2022/12/19 05:07:08;;;;;;;37.17;19.67;;;;;;;-4.16;82.46;102053.09;7396279;19;20082;-69
2022/12/19 05:09:36;;;;;;;36.70;20.40;;;;;;;-4.13;83.01;102052.44;7397947;19;20070;-69
2022/12/19 05:12:05;;;;;;;36.40;18.88;;;;;;;-4.12;81.28;102055.09;7397576;19;20428;-69
2022/12/19 05:14:34;;;;;;;40.58;20.80;;;;;;;-4.10;82.72;102045.78;7397587;19;20023;-69
2022/12/19 05:17:02;;;;;;;39.60;19.33;;;;;;;-4.09;82.95;102045.00;7395277;19;20081;-69
2022/12/19 05:19:31;;;;;;;39.90;20.42;;;;;;;-4.07;82.09;102049.34;7396576;19;20094;-69
2022/12/19 05:21:59;;;;;;;38.20;20.35;;;;;;;-4.04;82.69;102052.97;7395797;19;20079;-69
2022/12/19 05:24:30;;;;;;;36.72;20.17;;;;;;;-4.03;83.00;102054.75;7396861;19;20090;-69
2022/12/19 05:26:59;;;;;;;39.22;20.02;;;;;;;-4.01;82.65;102057.41;7394617;19;20035;-69
2022/12/19 05:29:27;;;;;;;39.20;19.60;;;;;;;-4.00;82.29;102057.47;7397010;19;20074;-69
2022/12/19 05:31:55;;;;;;;40.35;21.90;;;;;;;-3.98;82.26;102055.00;7396043;19;20074;-70
2022/12/19 05:34:25;;;;;;;42.03;20.33;;;;;;;-3.95;82.85;102057.75;7396575;19;20031;-69
2022/12/19 05:36:54;;;;;;;40.78;21.38;;;;;;;-3.93;82.90;102059.63;7395119;19;20083;-69
2022/12/19 05:39:22;;;;;;;38.00;19.38;;;;;;;-3.90;82.31;102053.78;7395363;19;20424;-70
2022/12/19 05:41:53;;;;;;;36.60;19.80;;;;;;;-3.88;82.28;102043.59;7395958;19;20082;-69
2022/12/19 05:44:22;;;;;;;38.83;18.75;;;;;;;-3.88;81.74;102049.63;7394797;19;20031;-69
2022/12/19 05:46:50;;;;;;;35.20;18.30;;;;;;;-3.86;81.21;102035.19;7394775;19;20178;-70
2022/12/19 05:49:19;;;;;;;37.20;19.75;;;;;;;-3.83;81.68;102026.81;7393690;19;20416;-69
2022/12/19 05:51:47;;;;;;;39.95;19.42;;;;;;;-3.82;81.60;102029.44;7396568;19;20553;-70
2022/12/19 05:54:16;;;;;;;38.03;18.90;;;;;;;-3.80;81.64;102021.88;7396496;19;20078;-69
2022/12/19 05:56:45;;;;;;;35.05;18.98;;;;;;;-3.78;81.57;102016.03;7394796;19;20090;-70
2022/12/19 05:59:16;;;;;;;34.53;18.60;;;;;;;-3.75;81.69;102010.19;7395594;19;20082;-70
2022/12/19 06:01:44;;;;;;;38.67;20.65;;;;;;;-3.71;81.74;102016.38;7395618;19;20414;-68
2022/12/19 06:04:12;;;;;;;40.05;19.77;;;;;;;-3.71;80.21;102016.38;7395279;19;20027;-69
2022/12/19 06:06:41;;;;;;;35.53;18.60;;;;;;;-3.67;80.88;102021.75;7393912;19;20035;-68
2022/12/19 06:09:09;;;;;;;36.00;18.80;;;;;;;-3.67;80.84;102023.44;7395056;19;20022;-68
2022/12/19 06:11:38;;;;;;;33.78;19.13;;;;;;;-3.64;80.44;102014.25;7393333;19;20436;-68
2022/12/19 06:14:09;;;;;;;35.95;19.23;;;;;;;-3.61;79.52;102013.53;7393931;19;20078;-68
2022/12/19 06:16:47;;;;;;;36.42;20.20;;;;;;;-3.60;80.58;102000.78;7393910;19;20022;-68
2022/12/19 06:19:16;;;;;;;35.35;17.30;;;;;;;-3.58;79.29;101997.44;7395023;19;20090;-68
2022/12/19 06:21:45;;;;;;;34.53;17.65;;;;;;;-3.56;79.30;102000.94;7391625;19;20031;-69
2022/12/19 06:24:14;;;;;;;31.73;17.50;;;;;;;-3.53;79.97;101985.75;7393976;19;20082;-69
2022/12/19 06:26:42;;;;;;;37.70;19.08;;;;;;;-3.51;80.00;101979.03;7393735;19;20214;-70
2022/12/19 06:29:11;;;;;;;33.30;17.92;;;;;;;-3.49;79.02;101993.69;7392730;19;20015;-69
2022/12/19 06:31:42;;;;;;;30.80;16.90;;;;;;;-3.45;78.70;101992.16;7393212;19;20015;-69
2022/12/19 06:34:11;;;;;;;34.33;17.23;;;;;;;-3.43;79.77;101995.72;7394145;19;20014;-68
2022/12/19 06:36:40;;;;;;;30.75;17.15;;;;;;;-3.40;79.18;101995.00;7393263;19;20014;-69
2022/12/19 06:39:08;;;;;;;33.80;18.13;;;;;;;-3.38;78.58;101990.84;7394686;19;20070;-69
2022/12/19 06:44:19;;;;;;;33.42;17.40;;;;;;;-3.34;77.67;101990.22;7394341;19;20007;-69
2022/12/19 06:46:50;;;;;;;32.50;17.48;;;;;;;-3.33;77.36;101987.72;7392993;19;20040;-69
2022/12/19 06:49:18;;;;;;;34.08;18.75;;;;;;;-3.31;77.27;101988.69;7394006;19;20102;-69
2022/12/19 06:51:47;;;;;;;33.90;18.38;;;;;;;-3.28;77.19;101999.13;7393585;19;20424;-70
2022/12/19 06:54:16;;;;;;;32.78;17.58;;;;;;;-3.26;77.20;101991.53;7393801;19;20082;-70
2022/12/19 06:56:46;;;;;;;36.50;17.13;;;;;;;-3.24;76.06;101991.59;7392869;19;20028;-70
2022/12/19 06:59:16;;;;;;;30.50;16.95;;;;;;;-3.23;75.93;101986.53;7394210;19;20023;-70
2022/12/19 07:02:02;;;;;;;45.28;21.95;;;;;;;-3.22;75.35;101988.31;7392148;19;20426;-71
2022/12/19 07:04:34;;;;;;;33.10;16.33;;;;;;;-3.21;76.72;101984.06;7393856;19;20039;-69
2022/12/19 07:07:02;;;;;;;33.20;17.92;;;;;;;-3.20;74.99;101984.13;7391973;19;20430;-70
2022/12/19 07:09:34;;;;;;;28.85;16.67;;;;;;;-3.19;75.48;101985.91;7395984;19;20078;-70
2022/12/19 07:12:05;;;;;;;30.67;15.70;;;;;;;-3.17;76.29;101981.75;7401369;19;20506;-70
2022/12/19 07:14:34;;;;;;;31.05;16.40;;;;;;;-3.15;77.05;101977.56;7401976;19;20019;-70
2022/12/19 07:17:06;;;;;;;31.75;17.30;;;;;;;-3.14;76.79;101992.16;7398506;19;20106;-69
2022/12/19 07:19:35;;;;;;;32.75;16.35;;;;;;;-3.11;77.54;102000.06;7401273;19;20085;-70
2022/12/19 07:22:05;;;;;;;31.27;16.00;;;;;;;-3.09;77.38;101994.13;7398537;19;20078;-70
2022/12/19 07:24:36;;;;;;;34.78;16.30;;;;;;;-3.07;76.75;102000.22;7400928;19;20078;-69
2022/12/19 07:27:05;;;;;;;35.85;17.05;;;;;;;-3.06;76.70;101989.16;7398539;19;20086;-70
2022/12/19 07:29:33;;;;;;;33.95;16.83;;;;;;;-3.05;76.68;101989.22;7400246;19;20023;-69
2022/12/19 07:32:04;;;;;;;34.22;17.92;;;;;;;-3.03;75.94;101985.06;7400603;19;20074;-74
2022/12/19 07:34:33;;;;;;;33.58;16.67;;;;;;;-3.00;76.26;101986.91;7401045;19;20078;-69
2022/12/19 07:37:01;;;;;;;30.15;15.45;;;;;;;-2.99;76.20;101980.97;7397543;19;20419;-69
2022/12/19 07:39:30;;;;;;;30.33;16.67;;;;;;;-2.99;75.50;101975.84;7399746;19;20019;-69
2022/12/19 07:41:58;;;;;;;31.63;15.23;;;;;;;-2.98;76.08;101983.63;7397369;19;20035;-70
2022/12/19 07:44:27;;;;;;;29.67;15.60;;;;;;;-2.96;75.17;101974.31;7399990;19;20015;-70
2022/12/19 07:46:56;;;;;;;28.42;15.65;;;;;;;-2.93;76.03;101976.16;7397824;19;20082;-70
2022/12/19 07:49:27;;;;;;;32.88;15.43;;;;;;;-2.89;75.53;101982.31;7400004;19;20017;-69
2022/12/19 07:51:55;;;;;;;32.90;16.10;;;;;;;-2.87;75.60;101988.44;7400647;19;20070;-69
2022/12/19 07:54:24;;;;;;;34.45;17.48;;;;;;;-2.83;75.81;101982.66;7399164;19;20505;-70
2022/12/19 07:56:53;;;;;;;29.50;15.10;;;;;;;-2.79;76.42;101984.59;7396931;19;20031;-69
2022/12/19 07:59:22;;;;;;;31.58;16.70;;;;;;;-2.75;76.18;101985.66;7398942;19;20035;-70
2022/12/19 08:01:50;;;;;;;34.10;15.98;;;;;;;-2.71;75.17;101982.44;7397790;19;20022;-69
2022/12/19 08:04:19;;;;;;;28.73;15.50;;;;;;;-2.72;74.64;101976.41;7399582;19;20035;-71
2022/12/19 08:06:50;;;;;;;30.95;15.55;;;;;;;-2.64;74.60;101979.41;7397805;19;20469;-70
2022/12/19 08:09:18;;;;;;;31.15;16.13;;;;;;;-2.59;75.18;101967.66;7399214;19;20078;-70
2022/12/19 08:11:47;;;;;;;29.77;16.90;;;;;;;-2.54;74.92;101965.31;7399050;19;20082;-70
2022/12/19 08:14:16;;;;;;;34.13;16.33;;;;;;;-2.50;75.44;101974.97;7399026;19;20085;-70
2022/12/19 08:16:44;;;;;;;36.35;16.77;;;;;;;-2.44;74.61;101975.25;7397533;19;20077;-70
2022/12/19 08:19:19;;;;;;;33.58;16.55;;;;;;;-2.40;74.18;101971.16;7398774;19;20077;-70
2022/12/19 08:21:50;;;;;;;34.22;16.75;;;;;;;-2.36;74.13;101965.41;7393663;19;20420;-70
2022/12/19 08:24:19;;;;;;;29.63;15.98;;;;;;;-2.31;73.59;101962.22;7399324;19;20014;-68
2022/12/19 08:26:47;;;;;;;31.08;15.60;;;;;;;-2.26;73.69;101957.34;7396862;19;20022;-69
2022/12/19 08:29:16;;;;;;;33.97;17.55;;;;;;;-2.21;73.53;101952.41;7398149;19;20510;-69
2022/12/19 08:31:44;;;;;;;34.92;16.58;;;;;;;-2.16;73.01;101956.97;7399124;19;20078;-69
2022/12/19 08:34:13;;;;;;;30.50;16.10;;;;;;;-2.11;72.99;101946.03;7397739;19;20078;-71
2022/12/19 08:36:41;;;;;;;36.60;18.63;;;;;;;-2.06;73.75;101955.75;7396802;19;20085;-70
2022/12/19 08:39:12;;;;;;;34.58;17.00;;;;;;;-2.02;73.86;101959.34;7399297;19;20015;-71
2022/12/19 08:41:41;;;;;;;33.78;16.30;;;;;;;-1.98;72.43;101948.41;7396475;19;20552;-71
2022/12/19 08:44:14;;;;;;;32.38;17.08;;;;;;;-1.94;74.06;101952.03;7398268;19;20090;-71
2022/12/19 08:46:42;;;;;;;34.58;17.95;;;;;;;-1.92;73.91;101938.44;7398102;19;20011;-72
2022/12/19 08:49:11;;;;;;;33.92;17.90;;;;;;;-1.87;71.65;101925.78;7398995;19;20032;-73
2022/12/19 08:51:39;;;;;;;30.33;15.98;;;;;;;-1.85;71.54;101919.88;7398128;19;20090;-74
2022/12/19 08:54:08;;;;;;;30.42;16.25;;;;;;;-1.80;73.21;101923.56;7398650;19;20023;-72
2022/12/19 08:56:39;;;;;;;33.67;17.98;;;;;;;-1.78;71.43;101900.50;7396833;19;20081;-72
2022/12/19 08:59:07;;;;;;;31.85;16.85;;;;;;;-1.74;71.59;101898.97;7398570;19;20258;-71
2022/12/19 09:01:36;;;;;;;37.03;18.27;;;;;;;-1.70;71.83;101893.13;7397072;19;20018;-71
2022/12/19 09:04:04;;;;;;;34.90;18.55;;;;;;;-1.67;71.37;101890.69;7398070;19;20029;-71
2022/12/19 09:06:33;;;;;;;33.55;16.35;;;;;;;-1.64;70.72;101883.13;7394841;19;20426;-72
2022/12/19 09:09:02;;;;;;;40.28;19.35;;;;;;;-1.59;72.35;101891.94;7397154;19;20025;-72
2022/12/19 09:11:30;;;;;;;33.10;17.27;;;;;;;-1.57;71.82;101880.00;7397457;19;20041;-70
2022/12/19 09:14:01;;;;;;;30.05;15.45;;;;;;;-1.54;70.98;101880.16;7397163;19;20090;-71
2022/12/19 09:16:30;;;;;;;33.97;17.15;;;;;;;-1.50;71.89;101882.06;7395396;19;20086;-73
2022/12/19 09:18:59;;;;;;;27.88;15.98;;;;;;;-1.48;72.03;101874.41;7396392;19;20019;-73
2022/12/19 09:21:30;;;;;;;31.50;16.23;;;;;;;-1.42;70.54;101873.81;7395259;19;20014;-72
2022/12/19 09:24:01;;;;;;;30.80;15.27;;;;;;;-1.39;71.58;101880.00;7397284;19;20011;-72
2022/12/19 09:26:30;;;;;;;29.30;16.85;;;;;;;-1.35;71.51;101870.72;7395330;19;20503;-73
2022/12/19 09:29:02;;;;;;;35.15;17.80;;;;;;;-1.32;71.06;101876.00;7396816;19;20018;-72
2022/12/19 09:31:30;;;;;;;36.10;17.00;;;;;;;-1.27;71.36;101871.06;7394940;19;20022;-73
2022/12/19 09:33:59;;;;;;;31.13;16.45;;;;;;;-1.23;72.31;101868.69;7395175;19;20448;-72
2022/12/19 09:36:27;;;;;;;29.75;16.02;;;;;;;-1.19;71.93;101862.88;7394902;19;20018;-72
2022/12/19 09:38:57;;;;;;;32.40;16.83;;;;;;;-1.16;71.59;101863.00;7396202;19;20015;-73
2022/12/19 09:41:44;;;;;;;32.05;16.05;;;;;;;-1.12;69.49;101847.69;7394860;19;20089;-73
2022/12/19 09:44:29;;;;;;;30.38;15.57;;;;;;;-1.09;70.11;101840.94;7396474;19;20078;-71
2022/12/19 09:47:00;;;;;;;32.90;16.63;;;;;;;-1.06;71.34;101842.78;7394559;19;20022;-72
2022/12/19 09:49:33;;;;;;;35.13;17.88;;;;;;;-1.01;71.25;101834.44;7396374;19;20078;-72
2022/12/19 09:52:07;;;;;;;34.97;16.90;;;;;;;-0.97;69.95;101835.47;7396092;19;20019;-73
2022/12/19 09:54:39;;;;;;;36.00;17.25;;;;;;;-0.94;70.90;101848.47;7396111;19;20434;-71
2022/12/19 09:57:14;;;;;;;33.92;17.92;;;;;;;-1.03;70.48;101819.75;7394770;19;20096;-71
2022/12/19 09:59:49;;;;;;;33.45;17.63;;;;;;;-0.87;69.76;101829.03;7396873;19;20087;-70
2022/12/19 10:02:31;;;;;;;32.45;17.33;;;;;;;-0.82;69.98;101824.94;7394877;19;20086;-71
2022/12/19 10:05:06;;;;;;;33.28;16.95;;;;;;;-0.78;68.77;101828.50;7395230;19;20081;-69
2022/12/19 10:07:35;;;;;;;33.25;16.90;;;;;;;-0.72;69.77;101828.75;7394979;19;20514;-70
2022/12/19 10:10:03;;;;;;;33.50;17.95;;;;;;;-0.69;70.63;101828.91;7394625;19;20074;-70
2022/12/19 10:12:53;;;;;;;35.58;18.08;;;;;;;-0.63;69.79;101824.00;7394980;19;20082;-71
2022/12/19 10:15:29;;;;;;;33.90;16.25;;;;;;;-0.59;69.71;101818.16;7394522;19;20015;-71
2022/12/19 10:18:14;;;;;;;34.75;17.67;;;;;;;-0.54;69.83;101815.78;7393298;19;20086;-69
2022/12/19 10:20:47;;;;;;;35.63;17.55;;;;;;;-0.50;70.70;101813.38;7394201;19;20480;-71
2022/12/19 10:23:43;;;;;;;37.33;18.00;;;;;;;-0.44;68.67;101801.53;7394073;19;20078;-68
2022/12/19 10:26:19;;;;;;;34.83;17.42;;;;;;;-0.37;69.72;101785.50;7394370;19;20486;-69
2022/12/19 10:29:10;;;;;;;36.58;18.73;;;;;;;-0.33;69.39;101782.22;7393818;19;20014;-69
2022/12/19 10:31:46;;;;;;;32.10;17.45;;;;;;;-0.28;68.74;101780.69;7395394;19;20074;-70
2022/12/19 10:34:20;;;;;;;35.58;17.88;;;;;;;-0.23;69.62;101781.78;7395234;19;20018;-68
2022/12/19 10:36:54;;;;;;;34.80;17.48;;;;;;;-0.18;69.32;101781.94;7393939;19;20090;-70
2022/12/19 10:39:30;;;;;;;33.53;17.67;;;;;;;-0.16;68.53;101780.31;7394476;19;20082;-70
2022/12/19 10:42:06;;;;;;;31.65;17.23;;;;;;;-0.11;71.01;101767.63;7392548;19;21097;-69
2022/12/19 10:44:37;;;;;;;32.83;16.85;;;;;;;-0.09;70.30;101759.13;7396543;19;20070;-69
2022/12/19 10:47:16;;;;;;;39.30;20.25;;;;;;;-0.10;70.95;101757.34;7400146;19;20083;-69
2022/12/19 10:49:45;;;;;;;41.60;22.75;;;;;;;-0.07;71.50;101749.72;7402060;19;20098;-68
2022/12/19 10:52:14;;;;;;;33.00;18.45;;;;;;;-0.07;71.83;101751.41;7401492;19;20366;-67
2022/12/19 10:54:44;;;;;;;35.83;18.92;;;;;;;-0.07;72.43;101749.72;7401933;19;20018;-68
2022/12/19 10:57:26;;;;;;;38.55;18.48;;;;;;;-0.06;72.73;101745.44;7399176;19;20040;-68
2022/12/19 10:59:59;;;;;;;34.50;17.58;;;;;;;-0.07;73.31;101734.22;7401188;19;20015;-68
2022/12/19 11:02:43;;;;;;;33.97;18.48;;;;;;;-0.10;74.31;101728.97;7399234;19;20017;-71
2022/12/19 11:05:24;;;;;;;38.13;19.97;;;;;;;-0.09;74.73;101729.84;7400250;19;20492;-69
2022/12/19 11:08:05;;;;;;;32.53;17.65;;;;;;;-0.12;75.60;101719.41;7400739;19;21117;-67
2022/12/19 11:10:40;;;;;;;33.90;17.92;;;;;;;-0.09;76.36;101720.41;7401566;19;20019;-66
2022/12/19 11:13:22;;;;;;;38.92;20.40;;;;;;;-0.09;76.73;101715.25;7399448;19;20018;-69
2022/12/19 11:15:52;;;;;;;45.80;23.45;;;;;;;-0.11;77.30;101708.28;7402208;19;20021;-67
2022/12/19 11:18:23;;;;;;;37.63;19.27;;;;;;;-0.13;78.07;101705.63;7400930;19;20086;-66
2022/12/19 11:21:01;;;;;;;37.33;19.08;;;;;;;-0.15;78.99;101699.53;7397809;19;20078;-68
2022/12/19 11:23:31;;;;;;;39.55;18.80;;;;;;;-0.17;79.07;101696.03;7397936;19;20019;-67
2022/12/19 11:26:02;;;;;;;39.42;20.50;;;;;;;-0.18;79.59;101699.41;7400239;19;20086;-68
2022/12/19 11:28:34;;;;;;;36.90;19.52;;;;;;;-0.22;80.76;101688.09;7400817;19;20509;-68
2022/12/19 11:31:09;;;;;;;37.25;19.95;;;;;;;-0.23;81.97;101682.88;7398445;19;20022;-67
2022/12/19 11:33:46;;;;;;;38.60;20.85;;;;;;;-0.24;82.31;101678.53;7400796;19;20025;-68
2022/12/19 11:36:38;;;;;;;36.97;20.25;;;;;;;-0.24;82.80;101678.53;7399247;19;20078;-68